Time;durP1;ratioP1;P1;durP2;ratioP2;P2;SDS_P1;SDS_P2;PMS_P1;PMS_P2;Temp;Humidity;BMP_temperature;BMP_pressure;BME280_temperature;BME280_humidity;BME280_pressure;Samples;Min_cycle;Max_cycle;Signal;HPM_P1;HPM_P2
2023/04/05 00:02:00;;;;;;;7.90;3.40;;;;;;;-0.63;71.42;101784.79;105732;1258;74094;-71
2023/04/05 00:04:27;;;;;;;9.80;3.60;;;;;;;-0.69;71.48;101785.58;105547;1253;71322;-71
2023/04/05 00:06:56;;;;;;;12.60;3.60;;;;;;;-0.73;71.91;101785.82;105599;1256;72654;-71
2023/04/05 00:09:23;;;;;;;12.00;4.40;;;;;;;-0.78;72.29;101784.14;105655;1259;61302;-70
2023/04/05 00:11:49;;;;;;;10.70;4.00;;;;;;;-0.82;72.44;101782.73;105562;1257;61349;-69
2023/04/05 00:14:16;;;;;;;9.50;3.90;;;;;;;-0.84;72.67;101780.55;105459;1258;74010;-71
2023/04/05 00:16:43;;;;;;;7.20;3.70;;;;;;;-0.85;72.83;101778.20;105487;1255;70046;-70
2023/04/05 00:19:12;;;;;;;10.40;4.80;;;;;;;-0.87;72.84;101784.55;105561;1255;71119;-70
2023/04/05 00:21:39;;;;;;;11.30;4.30;;;;;;;-0.89;72.99;101788.47;105417;1256;62266;-72
2023/04/05 00:24:08;;;;;;;13.10;4.20;;;;;;;-0.94;73.48;101788.35;105599;1256;61279;-70
2023/04/05 00:26:35;;;;;;;8.30;3.40;;;;;;;-0.99;73.76;101788.42;105700;1258;74035;-72
2023/04/05 00:29:01;;;;;;;10.70;3.80;;;;;;;-1.02;74.08;101786.33;105433;1261;70931;-71
2023/04/05 00:31:29;;;;;;;10.40;4.50;;;;;;;-1.05;74.09;101786.98;105555;1256;71486;-70
2023/04/05 00:33:56;;;;;;;11.40;4.60;;;;;;;-1.07;74.31;101787.60;105592;1260;61246;-73
2023/04/05 00:36:23;;;;;;;11.10;4.40;;;;;;;-1.07;74.50;101787.25;105573;1254;61232;-73
2023/04/05 00:38:49;;;;;;;11.40;4.00;;;;;;;-1.09;74.42;101787.70;105475;1259;73137;-71
2023/04/05 00:41:16;;;;;;;7.40;3.60;;;;;;;-1.11;74.43;101788.48;105656;1255;71310;-73
2023/04/05 00:43:45;;;;;;;11.60;3.80;;;;;;;-1.12;74.60;101778.98;105672;1258;74366;-74
2023/04/05 00:46:12;;;;;;;9.90;3.60;;;;;;;-1.13;74.57;101777.45;105604;1254;61376;-70
2023/04/05 00:48:39;;;;;;;8.10;3.50;;;;;;;-1.15;74.48;101771.98;105502;1254;61401;-71
2023/04/05 00:51:08;;;;;;;12.40;3.30;;;;;;;-1.16;74.47;101770.83;105579;1255;73082;-71
2023/04/05 00:53:36;;;;;;;10.30;3.40;;;;;;;-1.17;74.48;101773.69;105763;1258;72397;-70
2023/04/05 00:56:03;;;;;;;10.50;3.20;;;;;;;-1.21;74.50;101776.47;105576;1260;72697;-74
2023/04/05 00:58:30;;;;;;;8.40;3.00;;;;;;;-1.25;74.70;101777.48;105648;1255;61830;-71
2023/04/05 01:01:05;;;;;;;9.70;3.20;;;;;;;-1.28;74.64;101775.91;105717;1256;61159;-69
2023/04/05 01:03:35;;;;;;;8.40;3.30;;;;;;;-1.31;74.54;101775.02;105692;1255;73569;-71
2023/04/05 01:06:22;;;;;;;6.70;3.40;;;;;;;-1.34;74.50;101777.23;105624;1257;70025;-71
2023/04/05 01:09:01;;;;;;;4.60;2.90;;;;;;;-1.37;74.69;101774.80;105447;1260;73635;-71
2023/04/05 01:11:31;;;;;;;10.90;3.70;;;;;;;-1.39;74.80;101773.30;105639;1254;61843;-71
2023/04/05 01:14:01;;;;;;;6.30;3.50;;;;;;;-1.40;74.95;101772.15;105744;1256;61700;-70
2023/04/05 01:16:28;;;;;;;7.50;3.50;;;;;;;-1.41;74.82;101773.20;105724;1254;74841;-72
2023/04/05 01:18:55;;;;;;;5.90;3.30;;;;;;;-1.41;74.72;101774.45;105519;1261;70019;-70
2023/04/05 01:21:36;;;;;;;7.70;3.50;;;;;;;-1.44;74.79;101773.00;105603;1254;72556;-72
2023/04/05 01:24:32;;;;;;;9.50;3.90;;;;;;;-1.45;75.02;101771.33;105605;1259;62045;-72
2023/04/05 01:27:18;;;;;;;8.80;3.80;;;;;;;-1.47;75.32;101768.98;105585;1258;62847;-72
2023/04/05 01:30:06;;;;;;;8.60;3.80;;;;;;;-1.49;75.52;101761.46;105539;1258;73331;-71
2023/04/05 01:32:41;;;;;;;10.50;3.80;;;;;;;-1.51;75.72;101764.34;105621;1258;69375;-71
2023/04/05 01:35:28;;;;;;;9.10;3.80;;;;;;;-1.54;75.93;101763.92;105573;1259;71580;-72
2023/04/05 01:37:59;;;;;;;10.30;4.40;;;;;;;-1.56;75.97;101762.99;105464;1260;61682;-75
2023/04/05 01:40:27;;;;;;;10.50;4.70;;;;;;;-1.59;75.93;101757.89;105522;1256;61386;-71
2023/04/05 01:42:53;;;;;;;10.90;3.90;;;;;;;-1.61;76.23;101753.67;105619;1256;74844;-72
2023/04/05 01:45:20;;;;;;;7.30;3.90;;;;;;;-1.62;76.49;101755.48;105574;1260;61223;-71
2023/04/05 01:47:47;;;;;;;10.10;4.10;;;;;;;-1.66;76.68;101753.70;105423;1259;71834;-70
2023/04/05 01:50:14;;;;;;;8.70;3.70;;;;;;;-1.68;76.63;101754.32;105485;1255;61250;-70
2023/04/05 01:52:41;;;;;;;10.70;4.00;;;;;;;-1.70;76.85;101757.02;105566;1261;61383;-71
2023/04/05 01:55:08;;;;;;;9.50;4.10;;;;;;;-1.73;76.98;101758.70;105560;1260;74903;-73
2023/04/05 01:57:34;;;;;;;9.20;3.90;;;;;;;-1.75;77.09;101758.45;105605;1256;69660;-69
2023/04/05 02:00:01;;;;;;;9.50;3.60;;;;;;;-1.77;77.09;101755.40;105587;1258;72924;-70
2023/04/05 02:02:27;;;;;;;6.70;3.70;;;;;;;-1.79;77.10;101757.61;105566;1260;61298;-71
2023/04/05 02:04:54;;;;;;;9.30;3.90;;;;;;;-1.83;77.12;101756.73;105660;1255;62172;-71
2023/04/05 02:07:23;;;;;;;10.90;3.90;;;;;;;-1.86;77.34;101757.58;105549;1262;74796;-70
2023/04/05 02:09:49;;;;;;;8.20;4.10;;;;;;;-1.90;77.52;101752.35;105678;1259;70637;-69
2023/04/05 02:12:16;;;;;;;8.10;3.80;;;;;;;-1.90;77.60;101749.10;105634;1258;61301;-70
2023/04/05 02:14:43;;;;;;;8.00;4.40;;;;;;;-1.92;77.74;101746.59;105849;1256;61246;-70
2023/04/05 02:17:10;;;;;;;10.00;3.50;;;;;;;-1.94;77.69;101749.63;105582;1258;61168;-70
2023/04/05 02:19:39;;;;;;;12.50;4.50;;;;;;;-1.96;77.82;101747.26;105640;1255;73352;-72
2023/04/05 02:22:07;;;;;;;11.20;4.20;;;;;;;-1.98;78.26;101746.48;105581;1256;71258;-71
2023/04/05 02:24:34;;;;;;;10.30;3.80;;;;;;;-1.99;78.42;101744.28;105540;1258;71670;-71
2023/04/05 02:27:01;;;;;;;9.80;4.00;;;;;;;-1.99;78.45;101743.77;105566;1260;61856;-71
2023/04/05 02:29:28;;;;;;;8.40;3.80;;;;;;;-2.00;78.42;101743.64;105668;1256;61267;-70
2023/04/05 02:31:54;;;;;;;10.70;4.00;;;;;;;-2.02;78.45;101749.09;105510;1261;74979;-72
2023/04/05 02:34:21;;;;;;;9.60;3.80;;;;;;;-2.04;78.40;101756.80;105622;1260;71194;-71
2023/04/05 02:36:50;;;;;;;9.50;3.30;;;;;;;-2.07;78.50;101754.86;105533;1255;71457;-75
2023/04/05 02:39:17;;;;;;;12.20;4.20;;;;;;;-2.10;78.67;101749.45;105463;1256;61219;-71
2023/04/05 02:41:44;;;;;;;7.50;3.90;;;;;;;-2.13;78.59;101746.61;105588;1258;61242;-70
2023/04/05 02:44:12;;;;;;;7.90;3.70;;;;;;;-2.17;78.96;101742.28;105569;1261;74505;-71
2023/04/05 02:46:39;;;;;;;10.50;4.00;;;;;;;-2.19;79.05;101743.08;105637;1260;69948;-72
2023/04/05 02:49:06;;;;;;;8.40;3.90;;;;;;;-2.20;78.99;101743.14;105606;1258;71128;-73
2023/04/05 02:51:35;;;;;;;8.50;3.60;;;;;;;-2.22;79.17;101738.52;105724;1256;61340;-70
2023/04/05 02:54:02;;;;;;;10.00;4.60;;;;;;;-2.22;79.60;101742.18;105585;1259;61610;-71
2023/04/05 02:56:29;;;;;;;7.50;3.70;;;;;;;-2.22;79.74;101742.86;105618;1256;74663;-71
2023/04/05 02:58:55;;;;;;;9.60;4.00;;;;;;;-2.23;79.77;101743.60;105631;1256;61686;-70
2023/04/05 03:01:22;;;;;;;9.40;4.00;;;;;;;-2.24;79.87;101737.06;105620;1256;70368;-70
2023/04/05 03:03:49;;;;;;;8.30;3.80;;;;;;;-2.25;79.83;101733.27;105590;1256;61621;-70
2023/04/05 03:06:17;;;;;;;7.40;4.30;;;;;;;-2.26;79.85;101726.55;105662;1258;61231;-73
2023/04/05 03:08:44;;;;;;;8.50;3.80;;;;;;;-2.27;80.00;101725.39;105588;1258;75661;-70
2023/04/05 03:11:12;;;;;;;7.90;3.60;;;;;;;-2.28;80.05;101722.48;105590;1259;70321;-70
2023/04/05 03:13:39;;;;;;;8.10;3.70;;;;;;;-2.30;80.04;101718.96;105539;1261;71948;-72
2023/04/05 03:16:06;;;;;;;10.20;4.00;;;;;;;-2.34;79.85;101712.90;105387;1257;61287;-73
2023/04/05 03:18:32;;;;;;;8.60;3.90;;;;;;;-2.36;79.92;101711.79;105336;1260;61331;-71
2023/04/05 03:20:59;;;;;;;7.20;3.70;;;;;;;-2.38;80.03;101707.34;105486;1259;61628;-72
2023/04/05 03:23:29;;;;;;;9.70;3.90;;;;;;;-2.40;80.14;101706.39;105448;1260;70081;-71
2023/04/05 03:26:03;;;;;;;10.00;4.20;;;;;;;-2.40;80.39;101705.72;105423;1260;72715;-70
2023/04/05 03:28:33;;;;;;;11.00;4.80;;;;;;;-2.42;80.48;101705.95;105511;1261;61771;-70
2023/04/05 03:31:00;;;;;;;8.80;4.20;;;;;;;-2.43;80.70;101707.40;105638;1261;61284;-71
2023/04/05 03:33:27;;;;;;;8.70;4.90;;;;;;;-2.47;80.67;101706.19;105493;1260;61446;-71
2023/04/05 03:35:53;;;;;;;7.60;4.10;;;;;;;-2.50;80.80;101701.45;105486;1259;69614;-73
2023/04/05 03:38:20;;;;;;;8.80;4.60;;;;;;;-2.51;81.12;101703.92;105522;1260;71920;-71
2023/04/05 03:40:47;;;;;;;9.60;4.30;;;;;;;-2.52;81.27;101702.06;105646;1258;62547;-70
2023/04/05 03:43:14;;;;;;;8.10;4.10;;;;;;;-2.52;81.42;101707.77;105580;1257;61268;-69
2023/04/05 03:45:41;;;;;;;8.40;4.20;;;;;;;-2.51;81.47;101704.45;105495;1260;73292;-70
2023/04/05 03:48:08;;;;;;;9.10;4.50;;;;;;;-2.52;81.40;101707.40;105440;1260;69483;-72
2023/04/05 03:50:35;;;;;;;9.20;3.90;;;;;;;-2.52;81.35;101704.82;105600;1261;72498;-73
2023/04/05 03:53:02;;;;;;;8.10;4.20;;;;;;;-2.53;81.43;101706.95;105446;1260;61375;-70
2023/04/05 03:55:28;;;;;;;11.80;5.50;;;;;;;-2.54;81.43;101706.65;105443;1256;61825;-72
2023/04/05 03:57:55;;;;;;;8.70;4.30;;;;;;;-2.55;81.36;101707.73;105524;1258;73635;-73
2023/04/05 04:00:23;;;;;;;7.60;4.20;;;;;;;-2.56;81.63;101707.23;105614;1259;70910;-70
2023/04/05 04:02:51;;;;;;;8.50;4.20;;;;;;;-2.57;81.78;101706.06;105571;1260;72736;-72
2023/04/05 04:05:19;;;;;;;9.10;4.10;;;;;;;-2.58;81.49;101709.06;105498;1259;61348;-73
2023/04/05 04:07:47;;;;;;;7.60;3.90;;;;;;;-2.61;81.53;101707.65;105537;1261;61331;-71
2023/04/05 04:10:16;;;;;;;7.90;4.20;;;;;;;-2.64;81.46;101711.24;105552;1259;73139;-70
2023/04/05 04:12:44;;;;;;;9.80;4.20;;;;;;;-2.65;81.81;101709.54;105610;1261;71336;-72
2023/04/05 04:15:11;;;;;;;9.90;3.90;;;;;;;-2.66;82.02;101708.70;105500;1256;72434;-73
2023/04/05 04:17:38;;;;;;;8.80;4.30;;;;;;;-2.65;81.85;101704.55;105600;1257;61673;-74
2023/04/05 04:20:08;;;;;;;9.10;4.20;;;;;;;-2.65;82.04;101706.61;105606;1267;61220;-70
2023/04/05 04:22:38;;;;;;;7.90;4.00;;;;;;;-2.64;82.06;101708.81;105479;1262;74803;-70
2023/04/05 04:25:11;;;;;;;8.60;4.20;;;;;;;-2.65;82.09;101713.34;105575;1261;70024;-72
2023/04/05 04:27:41;;;;;;;8.10;3.70;;;;;;;-2.65;82.07;101712.66;105596;1258;71707;-72
2023/04/05 04:30:09;;;;;;;8.90;4.40;;;;;;;-2.64;82.26;101710.36;105736;1257;61762;-73
2023/04/05 04:32:50;;;;;;;12.10;5.20;;;;;;;-2.62;82.57;101712.17;105492;1261;61153;-73
2023/04/05 04:35:26;;;;;;;7.90;4.60;;;;;;;-2.60;83.06;101711.55;105499;1260;73554;-71
2023/04/05 04:37:57;;;;;;;7.60;4.10;;;;;;;-2.58;83.06;101710.79;105489;1258;70108;-71
2023/04/05 04:40:37;;;;;;;9.00;4.50;;;;;;;-2.56;82.93;101712.95;105708;1254;71510;-71
2023/04/05 04:43:13;;;;;;;11.50;4.40;;;;;;;-2.55;82.90;101709.98;105551;1259;61728;-72
2023/04/05 04:45:40;;;;;;;7.90;4.60;;;;;;;-2.55;82.87;101710.15;105510;1261;61230;-72
2023/04/05 04:48:08;;;;;;;11.50;4.90;;;;;;;-2.56;82.99;101710.00;105583;1260;73552;-72
2023/04/05 04:50:36;;;;;;;13.00;5.30;;;;;;;-2.55;83.13;101712.91;105617;1260;70284;-70
2023/04/05 04:53:05;;;;;;;14.30;8.50;;;;;;;-2.54;83.19;101712.85;105652;1260;71534;-70
2023/04/05 04:55:32;;;;;;;13.60;9.20;;;;;;;-2.50;83.41;101718.44;105609;1258;61247;-70
2023/04/05 04:57:59;;;;;;;10.40;4.90;;;;;;;-2.47;83.44;101716.73;105646;1255;61623;-70
2023/04/05 05:00:26;;;;;;;10.50;5.60;;;;;;;-2.41;83.43;101715.81;105583;1257;74917;-70
2023/04/05 05:02:52;;;;;;;10.10;5.20;;;;;;;-2.36;83.57;101717.64;105608;1258;61759;-71
2023/04/05 05:05:21;;;;;;;10.40;5.90;;;;;;;-2.29;83.55;101721.34;105522;1259;71569;-70
2023/04/05 05:07:48;;;;;;;10.60;5.50;;;;;;;-2.23;83.77;101719.50;105564;1260;61384;-72
2023/04/05 05:10:15;;;;;;;10.10;5.80;;;;;;;-2.17;83.64;101717.50;105560;1257;61223;-70
2023/04/05 05:12:42;;;;;;;10.60;6.30;;;;;;;-2.11;83.64;101721.23;105696;1257;73719;-71
2023/04/05 05:15:10;;;;;;;11.50;6.10;;;;;;;-2.02;83.71;101722.23;105568;1260;71114;-70
2023/04/05 05:17:38;;;;;;;11.10;6.30;;;;;;;-1.95;83.53;101724.67;105651;1262;71175;-70
2023/04/05 05:20:09;;;;;;;11.30;5.80;;;;;;;-1.86;83.70;101722.00;105666;1257;61273;-70
2023/04/05 05:22:38;;;;;;;10.10;6.10;;;;;;;-1.77;83.52;101722.46;105545;1259;61305;-69
2023/04/05 05:25:06;;;;;;;10.30;6.80;;;;;;;-1.67;83.56;101718.20;105667;1261;74964;-70
2023/04/05 05:27:33;;;;;;;14.80;6.10;;;;;;;-1.56;83.44;101719.46;105695;1258;71016;-70
2023/04/05 05:30:01;;;;;;;11.80;6.10;;;;;;;-1.47;83.24;101711.73;105630;1258;72755;-70
2023/04/05 05:32:27;;;;;;;12.70;5.70;;;;;;;-1.37;83.07;101713.89;105464;1256;61822;-72
2023/04/05 05:34:54;;;;;;;11.50;6.00;;;;;;;-1.28;82.69;101712.36;105668;1256;61275;-70
2023/04/05 05:37:31;;;;;;;11.30;5.60;;;;;;;-1.20;82.31;101714.63;105472;1259;226196;-69
2023/04/05 05:39:59;;;;;;;12.40;5.90;;;;;;;-1.11;82.42;101713.85;105710;1258;70804;-72
2023/04/05 05:42:26;;;;;;;11.00;5.60;;;;;;;-1.01;82.35;101714.40;105494;1260;70355;-71
2023/04/05 05:44:53;;;;;;;11.70;5.30;;;;;;;-0.93;82.07;101711.73;105595;1258;62096;-70
2023/04/05 05:47:19;;;;;;;12.10;5.50;;;;;;;-0.84;82.09;101711.30;105594;1254;61250;-70
2023/04/05 05:49:48;;;;;;;9.70;4.90;;;;;;;-0.74;81.89;101710.63;105400;1257;74703;-72
2023/04/05 05:52:15;;;;;;;10.00;5.30;;;;;;;-0.64;81.72;101710.65;105516;1259;69823;-70
2023/04/05 05:54:41;;;;;;;8.60;5.00;;;;;;;-0.54;81.46;101712.73;105670;1263;72405;-70
2023/04/05 05:57:08;;;;;;;11.50;5.50;;;;;;;-0.45;81.28;101714.02;105542;1254;62265;-71
2023/04/05 05:59:35;;;;;;;11.80;5.20;;;;;;;-0.36;81.07;101711.80;105771;1254;61610;-69
2023/04/05 06:02:01;;;;;;;9.80;5.40;;;;;;;-0.27;80.53;101712.91;105530;1263;74686;-71
2023/04/05 06:04:28;;;;;;;12.00;5.20;;;;;;;-0.18;80.51;101710.36;105705;1258;61577;-69
2023/04/05 06:06:56;;;;;;;10.60;5.70;;;;;;;-0.08;80.28;101708.62;105612;1259;71117;-72
2023/04/05 06:09:23;;;;;;;13.40;5.80;;;;;;;0.04;80.10;101709.08;105712;1254;61770;-70
2023/04/05 06:11:52;;;;;;;14.70;5.70;;;;;;;0.14;79.95;101708.87;105679;1255;61246;-72
2023/04/05 06:14:23;;;;;;;13.20;5.40;;;;;;;0.25;79.72;101710.67;105720;1258;74820;-71
2023/04/05 06:16:51;;;;;;;12.40;5.50;;;;;;;0.37;79.48;101709.15;105615;1259;69714;-74
2023/04/05 06:19:17;;;;;;;13.70;5.80;;;;;;;0.50;79.35;101703.27;105626;1257;71111;-70
2023/04/05 06:21:44;;;;;;;11.40;5.40;;;;;;;0.61;79.04;101700.55;105638;1255;61284;-70
2023/04/05 06:24:11;;;;;;;13.80;5.70;;;;;;;0.75;78.74;101704.13;105587;1256;61383;-70
2023/04/05 06:26:37;;;;;;;13.20;6.10;;;;;;;0.88;78.25;101704.77;105655;1260;61339;-72
2023/04/05 06:29:05;;;;;;;13.90;6.80;;;;;;;0.99;77.83;101707.10;105647;1257;70440;-72
2023/04/05 06:31:34;;;;;;;32.00;18.40;;;;;;;1.11;77.31;101704.84;105729;1257;71715;-69
2023/04/05 06:34:01;;;;;;;35.00;20.70;;;;;;;1.22;76.88;101704.55;105560;1260;61370;-72
2023/04/05 06:36:30;;;;;;;31.20;19.10;;;;;;;1.34;76.67;101709.80;105635;1259;61291;-70
2023/04/05 06:38:58;;;;;;;36.20;21.70;;;;;;;1.47;76.08;101712.19;105448;1258;74735;-72
2023/04/05 06:41:26;;;;;;;32.10;19.60;;;;;;;1.57;75.82;101707.58;105641;1260;69645;-69
2023/04/05 06:43:53;;;;;;;33.20;19.70;;;;;;;1.66;75.32;101710.84;105796;1257;72819;-69
2023/04/05 06:46:20;;;;;;;24.60;15.50;;;;;;;1.76;75.15;101703.61;105544;1254;61761;-72
2023/04/05 06:48:48;;;;;;;25.90;16.20;;;;;;;1.86;74.76;101703.72;105593;1255;61369;-71
2023/04/05 06:51:15;;;;;;;23.60;14.40;;;;;;;1.95;74.78;101701.77;105634;1259;74661;-70
2023/04/05 06:53:42;;;;;;;14.20;9.60;;;;;;;2.06;74.48;101704.91;105638;1259;71307;-71
2023/04/05 06:56:09;;;;;;;14.70;7.00;;;;;;;2.14;74.08;101706.34;105668;1258;72683;-69
2023/04/05 06:58:36;;;;;;;11.20;5.60;;;;;;;2.25;73.83;101703.41;105748;1254;62435;-70
2023/04/05 07:01:03;;;;;;;11.70;5.40;;;;;;;2.37;73.22;101710.17;105602;1260;61252;-69
2023/04/05 07:03:31;;;;;;;11.40;6.80;;;;;;;2.46;72.94;101706.99;105723;1254;73488;-70
2023/04/05 07:05:59;;;;;;;13.00;6.50;;;;;;;2.53;72.34;101710.35;105738;1258;71204;-74
2023/04/05 07:08:27;;;;;;;8.60;4.70;;;;;;;2.59;72.52;101700.91;105729;1260;71580;-70
2023/04/05 07:10:54;;;;;;;7.40;4.50;;;;;;;2.62;72.39;101702.65;105725;1257;62054;-69
2023/04/05 07:13:22;;;;;;;9.40;4.30;;;;;;;2.70;72.51;101701.80;105712;1258;61766;-72
2023/04/05 07:15:50;;;;;;;9.90;4.40;;;;;;;2.79;71.96;101697.01;105582;1258;73636;-69
2023/04/05 07:18:19;;;;;;;8.10;4.20;;;;;;;2.90;71.84;101696.48;105704;1255;70665;-70
2023/04/05 07:20:47;;;;;;;9.40;4.70;;;;;;;3.04;71.77;101693.30;105658;1257;71780;-71
2023/04/05 07:23:15;;;;;;;9.20;4.00;;;;;;;3.14;70.50;101693.30;105648;1254;61264;-70
2023/04/05 07:25:42;;;;;;;9.40;4.60;;;;;;;3.17;69.94;101689.41;105609;1256;61247;-72
2023/04/05 07:28:09;;;;;;;9.90;4.60;;;;;;;3.22;69.70;101686.97;105600;1259;73488;-72
2023/04/05 07:30:36;;;;;;;11.60;4.40;;;;;;;3.27;69.79;101691.23;105397;1261;69329;-70
2023/04/05 07:33:03;;;;;;;9.00;4.60;;;;;;;3.34;69.77;101690.40;105670;1258;71833;-70
2023/04/05 07:35:30;;;;;;;8.50;4.50;;;;;;;3.46;69.78;101688.55;105560;1260;61360;-74
2023/04/05 07:37:57;;;;;;;9.70;4.60;;;;;;;3.54;69.31;101688.33;105692;1258;61323;-72
2023/04/05 07:40:23;;;;;;;8.00;4.00;;;;;;;3.61;68.99;101685.27;105568;1254;73692;-70
2023/04/05 07:42:50;;;;;;;7.30;4.30;;;;;;;3.70;69.12;101679.93;105608;1259;70007;-72
2023/04/05 07:45:16;;;;;;;7.00;4.10;;;;;;;3.78;68.57;101678.88;105623;1256;72780;-69
2023/04/05 07:47:43;;;;;;;8.10;4.20;;;;;;;3.84;68.45;101676.29;105699;1258;61359;-70
2023/04/05 07:50:13;;;;;;;6.80;3.70;;;;;;;3.97;68.21;101679.10;105673;1254;61271;-72
2023/04/05 07:52:41;;;;;;;6.30;3.80;;;;;;;4.14;67.72;101681.21;105819;1257;74671;-69
2023/04/05 07:55:08;;;;;;;11.60;3.70;;;;;;;4.24;67.05;101678.92;105694;1258;70168;-72
2023/04/05 07:57:35;;;;;;;8.10;4.20;;;;;;;4.37;66.97;101682.89;105734;1257;72690;-70
2023/04/05 08:00:04;;;;;;;8.40;4.60;;;;;;;4.50;66.94;101688.29;105487;1257;61224;-72
2023/04/05 08:02:30;;;;;;;6.30;3.50;;;;;;;4.70;66.82;101691.07;105556;1260;61277;-73
2023/04/05 08:04:57;;;;;;;6.00;3.50;;;;;;;4.86;64.69;101692.65;105603;1255;73472;-73
2023/04/05 08:07:24;;;;;;;8.10;3.60;;;;;;;4.98;62.71;101697.77;105611;1257;72387;-69
2023/04/05 08:09:50;;;;;;;7.30;3.90;;;;;;;5.06;63.31;101694.52;105508;1254;61258;-74
2023/04/05 08:12:17;;;;;;;9.60;4.50;;;;;;;5.14;63.74;101690.38;105699;1258;61356;-70
2023/04/05 08:14:44;;;;;;;5.50;3.70;;;;;;;5.23;64.12;101697.80;105731;1256;61669;-70
2023/04/05 08:17:10;;;;;;;7.60;4.30;;;;;;;5.27;64.13;101691.73;105583;1258;74711;-73
2023/04/05 08:19:37;;;;;;;8.60;4.20;;;;;;;5.32;64.35;101696.27;105842;1257;71281;-72
2023/04/05 08:22:03;;;;;;;9.10;4.60;;;;;;;5.38;64.66;101693.58;105649;1255;61144;-69
2023/04/05 08:24:30;;;;;;;6.70;3.90;;;;;;;5.47;65.02;101691.06;105608;1254;61404;-70
2023/04/05 08:26:56;;;;;;;8.70;4.10;;;;;;;5.63;64.95;101692.86;105320;1260;61672;-73
2023/04/05 08:29:23;;;;;;;7.90;4.00;;;;;;;5.69;64.12;101691.13;105581;1257;61375;-70
2023/04/05 08:31:50;;;;;;;7.00;3.90;;;;;;;5.76;64.20;101687.30;105605;1255;61396;-72
2023/04/05 08:34:16;;;;;;;5.10;3.20;;;;;;;5.96;63.94;101686.47;105601;1260;61244;-71
2023/04/05 08:36:43;;;;;;;6.30;2.80;;;;;;;6.19;61.04;101688.71;105605;1257;61362;-70
2023/04/05 08:39:10;;;;;;;4.50;3.00;;;;;;;6.47;60.37;101688.17;105582;1254;62167;-74
2023/04/05 08:41:41;;;;;;;5.60;3.20;;;;;;;6.79;59.14;101683.33;105808;1254;73440;-71
2023/04/05 08:44:09;;;;;;;7.00;3.20;;;;;;;6.99;58.44;101677.83;105661;1254;69661;-70
2023/04/05 08:46:37;;;;;;;6.00;3.10;;;;;;;7.17;58.08;101675.28;105859;1257;70863;-72
2023/04/05 08:49:10;;;;;;;6.60;3.20;;;;;;;7.34;56.84;101676.48;105419;1259;61405;-72
2023/04/05 08:51:38;;;;;;;6.50;3.70;;;;;;;7.50;57.17;101673.04;105831;1255;61220;-69
2023/04/05 08:54:04;;;;;;;9.00;3.90;;;;;;;7.68;56.62;101675.72;105734;1254;73467;-69
2023/04/05 08:56:32;;;;;;;7.30;4.10;;;;;;;7.82;55.47;101669.08;105555;1254;69782;-71
2023/04/05 08:59:05;;;;;;;9.70;4.20;;;;;;;7.94;54.01;101669.37;105535;1256;72462;-70
2023/04/05 09:01:35;;;;;;;9.30;4.40;;;;;;;8.06;52.41;101670.98;105493;1255;62515;-72
2023/04/05 09:04:08;;;;;;;18.20;8.40;;;;;;;8.17;50.35;101667.03;105706;1254;61370;-70
2023/04/05 09:06:35;;;;;;;17.90;8.20;;;;;;;8.23;48.66;101670.41;105596;1258;74174;-69
2023/04/05 09:09:06;;;;;;;19.00;8.60;;;;;;;8.31;47.96;101671.47;105603;1255;69787;-70
2023/04/05 09:11:34;;;;;;;21.00;9.70;;;;;;;8.36;46.70;101664.31;105520;1255;70952;-71
2023/04/05 09:14:05;;;;;;;16.90;8.00;;;;;;;8.46;47.13;101666.64;105601;1254;62073;-71
2023/04/05 09:16:39;;;;;;;19.60;9.80;;;;;;;8.56;47.12;101663.59;105464;1254;61567;-72
2023/04/05 09:19:07;;;;;;;18.00;7.60;;;;;;;8.67;46.38;101667.91;105634;1257;73635;-69
2023/04/05 09:21:56;;;;;;;15.70;7.90;;;;;;;8.79;46.69;101667.52;105688;1257;70548;-70
2023/04/05 09:24:40;;;;;;;14.90;7.70;;;;;;;8.93;45.25;101672.45;105749;1254;72307;-70
2023/04/05 09:27:12;;;;;;;20.10;9.60;;;;;;;9.07;44.28;101670.13;105733;1256;61284;-70
2023/04/05 09:29:51;;;;;;;13.20;6.80;;;;;;;9.01;42.30;101666.96;105650;1255;61234;-69
2023/04/05 09:32:22;;;;;;;16.50;8.70;;;;;;;8.98;43.27;101664.91;105545;1256;73239;-69
2023/04/05 09:34:52;;;;;;;12.50;6.20;;;;;;;9.20;43.01;101663.93;105644;1255;70104;-69
2023/04/05 09:37:21;;;;;;;9.30;4.60;;;;;;;9.44;41.72;101664.41;105605;1254;71707;-71
2023/04/05 09:39:50;;;;;;;8.00;4.70;;;;;;;9.69;41.42;101663.43;105704;1257;61279;-68
2023/04/05 09:42:21;;;;;;;12.60;6.20;;;;;;;9.96;40.28;101661.23;105565;1254;61646;-70
2023/04/05 09:45:00;;;;;;;13.40;7.00;;;;;;;10.12;38.99;101658.46;105610;1257;73490;-71
2023/04/05 09:47:33;;;;;;;15.40;7.30;;;;;;;10.27;39.39;101658.96;105637;1254;69965;-70
2023/04/05 09:50:05;;;;;;;6.20;3.00;;;;;;;10.59;38.82;101653.05;105667;1254;71430;-69
2023/04/05 09:52:31;;;;;;;5.00;2.20;;;;;;;10.88;37.34;101653.50;105823;1255;61812;-68
2023/04/05 09:55:03;;;;;;;4.20;2.30;;;;;;;11.15;35.93;101647.30;105692;1254;61290;-69
2023/04/05 09:57:34;;;;;;;5.60;2.30;;;;;;;11.36;36.02;101650.29;105742;1255;73201;-67
2023/04/05 10:00:04;;;;;;;6.00;2.10;;;;;;;11.57;35.79;101650.58;105846;1260;71195;-68
2023/04/05 10:02:36;;;;;;;5.50;2.20;;;;;;;11.75;35.61;101650.39;105753;1260;70476;-69
2023/04/05 10:05:12;;;;;;;3.90;2.10;;;;;;;11.69;34.70;101647.25;105707;1259;61267;-68
2023/04/05 10:07:41;;;;;;;5.30;2.60;;;;;;;11.53;34.10;101650.40;105741;1258;61256;-69
2023/04/05 10:10:11;;;;;;;4.40;2.20;;;;;;;11.56;34.54;101648.25;105710;1254;73537;-71
2023/04/05 10:12:40;;;;;;;4.60;2.30;;;;;;;11.44;33.48;101639.98;105653;1257;70900;-70
2023/04/05 10:15:11;;;;;;;3.00;1.60;;;;;;;11.16;34.01;101637.48;105410;1254;72637;-68
2023/04/05 10:17:50;;;;;;;4.40;2.10;;;;;;;10.79;33.53;101638.00;105732;1254;62317;-69
2023/04/05 10:20:20;;;;;;;3.50;2.00;;;;;;;10.73;33.75;101634.47;105692;1254;61841;-69
2023/04/05 10:23:06;;;;;;;4.70;2.00;;;;;;;10.73;34.30;101628.27;105687;1260;74654;-68
2023/04/05 10:25:41;;;;;;;4.00;2.40;;;;;;;10.92;34.82;101630.50;105689;1254;70899;-72
2023/04/05 10:28:15;;;;;;;4.80;2.00;;;;;;;11.07;35.24;101624.40;105643;1258;71653;-73
2023/04/05 10:30:46;;;;;;;4.00;1.90;;;;;;;11.20;34.72;101624.23;105537;1255;61298;-73
2023/04/05 10:33:23;;;;;;;3.90;1.70;;;;;;;11.41;34.69;101624.10;105665;1255;61651;-72
2023/04/05 10:36:17;;;;;;;5.20;1.80;;;;;;;11.50;33.79;101621.81;105539;1257;75833;-71
2023/04/05 10:39:05;;;;;;;4.00;1.80;;;;;;;11.52;33.43;101619.30;105834;1255;72402;-73
2023/04/05 10:41:35;;;;;;;3.90;1.80;;;;;;;11.65;33.75;101609.93;105543;1260;72781;-75
2023/04/05 10:44:03;;;;;;;3.50;1.90;;;;;;;11.75;32.98;101610.46;105611;1254;62134;-74
2023/04/05 10:46:45;;;;;;;4.00;2.20;;;;;;;11.86;33.70;101610.21;105695;1255;61268;-73
2023/04/05 10:49:31;;;;;;;5.60;2.00;;;;;;;12.04;33.63;101608.23;105629;1256;73705;-76
2023/04/05 10:51:58;;;;;;;4.40;2.50;;;;;;;12.12;33.45;101602.34;105733;1254;70893;-73
2023/04/05 10:54:27;;;;;;;4.70;2.40;;;;;;;12.15;33.14;101595.37;105731;1258;72765;-74
2023/04/05 10:56:55;;;;;;;4.20;2.50;;;;;;;12.17;32.43;101592.77;105513;1256;61603;-72
2023/04/05 10:59:23;;;;;;;4.90;2.90;;;;;;;12.13;32.31;101592.53;105720;1255;61723;-75
2023/04/05 11:01:50;;;;;;;5.60;2.50;;;;;;;12.22;32.99;101591.02;105628;1254;73257;-73
2023/04/05 11:04:17;;;;;;;5.20;2.40;;;;;;;12.32;32.91;101588.91;105785;1255;71140;-72
2023/04/05 11:06:46;;;;;;;3.80;2.40;;;;;;;12.46;32.86;101588.08;105670;1255;71468;-74
2023/04/05 11:09:21;;;;;;;4.10;2.00;;;;;;;12.60;32.47;101586.64;105423;1256;61357;-73
2023/04/05 11:11:51;;;;;;;5.50;2.80;;;;;;;12.54;31.66;101589.06;105517;1254;61392;-72
2023/04/05 11:14:22;;;;;;;4.80;2.70;;;;;;;12.58;32.75;101590.13;105785;1254;73169;-73
2023/04/05 11:16:55;;;;;;;4.30;2.40;;;;;;;12.68;31.66;101588.06;105605;1257;69409;-74
2023/04/05 11:19:41;;;;;;;4.60;2.70;;;;;;;12.67;31.57;101588.72;105560;1255;72691;-73
2023/04/05 11:22:09;;;;;;;6.30;3.10;;;;;;;12.68;30.99;101587.70;105941;1255;61832;-73
2023/04/05 11:24:57;;;;;;;5.30;2.80;;;;;;;12.60;29.16;101583.73;105722;1256;61222;-73
2023/04/05 11:27:28;;;;;;;6.40;3.10;;;;;;;12.53;28.65;101577.42;105435;1260;74660;-72